createdAt,value
2022-09-10T00:01:30.770Z,70.40
2022-09-10T00:03:59.239Z,70.11
2022-09-10T00:06:28.405Z,69.91
2022-09-10T00:08:58.523Z,70.64
2022-09-10T00:11:28.638Z,70.13
2022-09-10T00:13:58.060Z,70.32
2022-09-10T00:16:28.388Z,69.53
2022-09-10T00:18:58.294Z,69.71
2022-09-10T00:21:26.647Z,69.94
2022-09-10T00:23:55.163Z,70.05
2022-09-10T00:26:25.961Z,70.52
2022-09-10T00:28:55.381Z,70.31
2022-09-10T00:31:24.238Z,70.19
2022-09-10T00:33:53.349Z,70.99
2022-09-10T00:36:23.435Z,70.27
2022-09-10T00:38:52.652Z,70.13
2022-09-10T00:41:21.521Z,70.72
2022-09-10T00:43:50.287Z,70.63
2022-09-10T00:46:43.315Z,71.21
2022-09-10T00:49:23.059Z,70.69
2022-09-10T00:51:53.318Z,70.64
2022-09-10T00:54:24.855Z,71.16
2022-09-10T00:56:55.114Z,70.98
2022-09-10T00:59:27.296Z,71.50
2022-09-10T01:01:56.494Z,71.21
2022-09-10T01:04:24.832Z,71.17
2022-09-10T01:06:54.590Z,71.40
2022-09-10T01:09:24.598Z,71.45
2022-09-10T01:12:10.794Z,70.63
2022-09-10T01:14:39.082Z,71.07
2022-09-10T01:17:15.239Z,71.27
2022-09-10T01:20:02.503Z,71.30
2022-09-10T01:22:37.016Z,70.85
2022-09-10T01:25:15.286Z,70.69
2022-09-10T01:27:45.994Z,71.22
2022-09-10T01:30:21.876Z,71.08
2022-09-10T01:33:11.288Z,71.10
2022-09-10T01:35:50.704Z,71.00
2022-09-10T01:38:26.254Z,70.92
2022-09-10T01:40:55.860Z,70.75
2022-09-10T01:43:26.017Z,71.38
2022-09-10T01:46:20.016Z,70.36
2022-09-10T01:48:50.400Z,71.65
2022-09-10T01:51:37.678Z,71.29
2022-09-10T01:54:26.002Z,72.14
2022-09-10T01:57:04.837Z,69.90
2022-09-10T01:59:44.672Z,66.89
2022-09-10T02:02:17.809Z,65.88
2022-09-10T02:04:48.274Z,63.20
2022-09-10T02:07:18.681Z,62.18
2022-09-10T02:09:47.247Z,61.65
2022-09-10T02:12:20.263Z,60.33
2022-09-10T02:15:09.664Z,60.93
2022-09-10T02:18:07.440Z,60.61
2022-09-10T02:20:35.693Z,60.34
2022-09-10T02:23:05.919Z,60.48
2022-09-10T02:25:35.553Z,59.87
2022-09-10T02:28:05.267Z,59.22
2022-09-10T02:30:33.929Z,58.71
2022-09-10T02:33:02.277Z,58.97
2022-09-10T02:35:31.954Z,57.85
2022-09-10T02:38:02.547Z,57.78
2022-09-10T02:40:32.357Z,57.92
2022-09-10T02:43:00.583Z,57.31
2022-09-10T02:45:30.571Z,57.00
2022-09-10T02:47:59.465Z,57.96
2022-09-10T02:50:28.169Z,57.72
2022-09-10T02:52:58.608Z,58.64
2022-09-10T02:55:27.143Z,59.15
2022-09-10T02:57:56.208Z,59.67
2022-09-10T03:00:25.026Z,60.49
2022-09-10T03:02:53.582Z,60.71
2022-09-10T03:05:22.952Z,61.40
2022-09-10T03:07:52.053Z,61.76
2022-09-10T03:10:21.479Z,61.24
2022-09-10T03:12:50.053Z,61.80
2022-09-10T03:15:21.136Z,62.29
2022-09-10T03:17:51.674Z,62.54
2022-09-10T03:20:23.705Z,63.03
2022-09-10T03:22:52.346Z,62.05
2022-09-10T03:25:20.779Z,62.89
2022-09-10T03:27:49.153Z,62.99
2022-09-10T03:30:17.460Z,63.01
2022-09-10T03:32:45.634Z,62.42
2022-09-10T03:35:16.555Z,62.55
2022-09-10T03:37:45.068Z,62.00
2022-09-10T03:40:13.314Z,61.86
2022-09-10T03:42:41.862Z,61.70
2022-09-10T03:45:11.724Z,61.63
2022-09-10T03:47:41.035Z,61.48
2022-09-10T03:50:09.763Z,61.09
2022-09-10T03:52:38.084Z,61.10
2022-09-10T03:55:06.892Z,60.55
2022-09-10T03:57:35.144Z,60.95
2022-09-10T04:00:03.955Z,59.96
2022-09-10T04:02:43.067Z,60.42
2022-09-10T04:05:13.324Z,60.21
2022-09-10T04:07:41.656Z,59.82
2022-09-10T04:10:10.387Z,59.09
2022-09-10T04:12:38.644Z,59.25
2022-09-10T04:15:07.380Z,59.05
2022-09-10T04:17:35.712Z,59.22
2022-09-10T04:20:04.703Z,57.77
2022-09-10T04:22:35.281Z,57.97
2022-09-10T04:25:03.791Z,58.34
2022-09-10T04:27:32.624Z,58.17
2022-09-10T04:30:01.532Z,58.11
2022-09-10T04:32:29.871Z,58.05
2022-09-10T04:34:59.853Z,58.05
2022-09-10T04:37:28.563Z,57.57
2022-09-10T04:39:57.170Z,58.35
2022-09-10T04:42:25.796Z,57.37
2022-09-10T04:44:55.075Z,58.22
2022-09-10T04:47:23.870Z,57.49
2022-09-10T04:49:53.340Z,58.14
2022-09-10T04:52:23.435Z,57.96
2022-09-10T04:54:53.322Z,57.62
2022-09-10T04:57:21.642Z,55.79
2022-09-10T04:59:49.849Z,57.32
2022-09-10T05:02:19.338Z,56.11
2022-09-10T05:04:51.301Z,57.00
2022-09-10T05:07:19.556Z,56.72
2022-09-10T05:09:47.850Z,56.24
2022-09-10T05:12:20.567Z,55.18
2022-09-10T05:14:49.768Z,55.77
2022-09-10T05:17:18.366Z,55.34
2022-09-10T05:19:46.487Z,54.85
2022-09-10T05:22:14.918Z,53.91
2022-09-10T05:24:44.990Z,53.96
2022-09-10T05:27:13.455Z,54.24
2022-09-10T05:29:41.606Z,53.91
2022-09-10T05:32:11.234Z,52.00
2022-09-10T05:34:40.744Z,53.34
2022-09-10T05:37:09.651Z,53.54
2022-09-10T05:39:38.214Z,51.79
2022-09-10T05:42:06.997Z,52.99
2022-09-10T05:44:38.800Z,51.62
2022-09-10T05:47:07.388Z,52.83
2022-09-10T05:49:35.771Z,51.70
2022-09-10T05:52:04.828Z,52.47
2022-09-10T05:54:33.818Z,52.00
2022-09-10T05:57:02.447Z,51.28
2022-09-10T05:59:32.134Z,51.94
2022-09-10T06:02:00.451Z,49.75
2022-09-10T06:04:30.440Z,49.14
2022-09-10T06:06:59.293Z,48.48
2022-09-10T06:09:27.646Z,49.28
2022-09-10T06:12:07.343Z,48.46
2022-09-10T06:14:36.861Z,49.65
2022-09-10T06:17:05.452Z,47.93
2022-09-10T06:19:34.194Z,48.89
2022-09-10T06:22:02.669Z,48.03
2022-09-10T06:24:34.967Z,48.33
2022-09-10T06:27:03.241Z,46.73
2022-09-10T06:29:37.399Z,48.11
2022-09-10T06:32:06.911Z,47.82
2022-09-10T06:34:36.548Z,45.22
2022-09-10T06:37:06.775Z,45.49
2022-09-10T06:39:38.298Z,44.18
2022-09-10T06:42:07.945Z,45.86
2022-09-10T06:44:54.615Z,45.66
2022-09-10T06:50:38.345Z,44.20
2022-09-10T06:53:07.655Z,45.76
2022-09-10T06:55:36.226Z,44.67
2022-09-10T06:58:04.892Z,45.89
2022-09-10T07:00:34.176Z,44.04
2022-09-10T07:03:03.866Z,44.90
2022-09-10T07:05:36.030Z,44.49
2022-09-10T07:08:06.098Z,44.44
2022-09-10T07:10:34.998Z,43.42
2022-09-10T07:13:03.183Z,45.15
2022-09-10T07:15:32.580Z,43.72
2022-09-10T07:18:01.896Z,45.54
2022-09-10T07:20:31.008Z,43.62
2022-09-10T07:23:00.215Z,43.33
2022-09-10T07:25:30.128Z,43.61
2022-09-10T07:28:04.943Z,44.31
2022-09-10T07:30:36.724Z,43.54
2022-09-10T07:33:05.304Z,44.36
2022-09-10T07:35:37.469Z,43.73
2022-09-10T07:38:07.771Z,43.63
2022-09-10T07:40:40.975Z,42.69
2022-09-10T07:43:10.517Z,43.37
2022-09-10T07:45:40.784Z,42.68
2022-09-10T07:48:12.656Z,43.81
2022-09-10T07:50:41.671Z,45.31
2022-09-10T07:53:12.464Z,45.87
2022-09-10T07:55:40.686Z,46.23
2022-09-10T07:58:11.004Z,46.28
2022-09-10T08:00:43.678Z,46.25
2022-09-10T08:03:12.510Z,45.64
2022-09-10T08:05:41.630Z,43.14
2022-09-10T08:08:11.253Z,44.17
2022-09-10T08:10:40.907Z,42.82
2022-09-10T08:13:10.899Z,42.82
2022-09-10T08:15:45.387Z,42.56
2022-09-10T08:18:14.474Z,42.24
2022-09-10T08:20:43.051Z,41.84
2022-09-10T08:23:11.517Z,41.88
2022-09-10T08:25:39.843Z,42.38
2022-09-10T08:28:09.210Z,42.36
2022-09-10T08:30:38.236Z,42.59
2022-09-10T08:33:06.949Z,42.89
2022-09-10T08:35:36.352Z,43.05
2022-09-10T08:38:04.639Z,44.11
2022-09-10T08:40:33.465Z,44.33
2022-09-10T08:43:02.485Z,44.69
2022-09-10T08:45:33.509Z,45.49
2022-09-10T08:48:07.803Z,45.22
2022-09-10T08:50:50.701Z,45.30
2022-09-10T08:53:23.713Z,45.40
2022-09-10T08:55:53.837Z,45.27
2022-09-10T08:58:26.475Z,45.21
2022-09-10T09:00:58.679Z,45.35
2022-09-10T09:03:34.605Z,45.56
2022-09-10T09:06:03.651Z,45.73
2022-09-10T09:08:43.209Z,45.92
2022-09-10T09:11:30.118Z,44.84
2022-09-10T09:14:04.484Z,44.67
2022-09-10T09:16:48.036Z,44.09
2022-09-10T09:19:32.304Z,42.26
2022-09-10T09:22:23.947Z,43.65
2022-09-10T09:24:58.977Z,43.85
2022-09-10T09:27:30.783Z,43.15
2022-09-10T09:30:02.646Z,43.42
2022-09-10T09:32:38.019Z,43.52
2022-09-10T09:35:24.792Z,43.35
2022-09-10T09:38:17.340Z,43.29
2022-09-10T09:40:50.439Z,42.30
2022-09-10T09:43:24.613Z,41.59
2022-09-10T09:45:55.393Z,42.29
2022-09-10T09:48:33.125Z,42.08
2022-09-10T09:51:02.337Z,42.56
2022-09-10T09:53:31.766Z,41.98
2022-09-10T09:56:01.576Z,41.81
2022-09-10T09:58:31.135Z,41.94
2022-09-10T10:01:08.892Z,42.93
2022-09-10T10:03:59.421Z,42.51
2022-09-10T10:06:31.938Z,42.50
2022-09-10T10:09:08.282Z,41.74
2022-09-10T10:11:41.606Z,42.36
2022-09-10T10:14:32.934Z,42.06
2022-09-10T10:17:01.688Z,42.71
2022-09-10T10:19:30.083Z,42.18
2022-09-10T10:22:00.714Z,42.05
2022-09-10T10:24:33.627Z,42.39
2022-09-10T10:27:01.897Z,42.41
2022-09-10T10:29:30.048Z,42.72
2022-09-10T10:32:01.551Z,42.49
2022-09-10T10:34:32.018Z,41.32
2022-09-10T10:37:15.357Z,41.56
2022-09-10T10:40:04.430Z,42.08
2022-09-10T10:42:39.628Z,41.38
2022-09-10T10:45:20.153Z,41.01
2022-09-10T10:47:55.278Z,42.15
2022-09-10T10:50:34.277Z,41.52
2022-09-10T10:53:21.903Z,41.86
2022-09-10T10:56:02.658Z,41.00
2022-09-10T10:58:41.434Z,41.77
2022-09-10T11:01:26.563Z,42.09
2022-09-10T11:04:13.733Z,41.97
2022-09-10T11:06:44.649Z,42.93
2022-09-10T11:09:45.069Z,42.38
2022-09-10T11:12:17.728Z,42.71
2022-09-10T11:14:45.997Z,42.23
2022-09-10T11:17:35.719Z,42.43
2022-09-10T11:20:28.414Z,42.73
2022-09-10T11:23:06.877Z,42.88
2022-09-10T11:25:38.679Z,42.88
2022-09-10T11:28:16.320Z,42.85
2022-09-10T11:30:48.982Z,43.09
2022-09-10T11:33:28.457Z,43.03
2022-09-10T11:36:08.901Z,42.55
2022-09-10T11:38:59.614Z,43.18
2022-09-10T11:41:30.814Z,43.46
2022-09-10T11:44:36.362Z,43.04
2022-09-10T11:47:05.069Z,43.36
2022-09-10T11:49:54.053Z,42.74
2022-09-10T11:52:24.151Z,42.91
2022-09-10T11:54:53.162Z,42.83
2022-09-10T11:57:33.914Z,42.16
2022-09-10T12:00:18.343Z,42.38
2022-09-10T12:03:14.001Z,42.04
2022-09-10T12:05:43.154Z,42.38
2022-09-10T12:08:18.205Z,42.25
2022-09-10T12:10:54.133Z,42.16
2022-09-10T12:13:23.274Z,42.65
2022-09-10T12:15:54.124Z,42.74
2022-09-10T12:18:29.080Z,42.76
2022-09-10T12:21:00.340Z,43.00
2022-09-10T12:23:31.209Z,43.58
2022-09-10T12:25:59.517Z,43.29
2022-09-10T12:28:42.913Z,43.29
2022-09-10T12:31:15.893Z,43.94
2022-09-10T12:33:47.091Z,44.44
2022-09-10T12:36:35.381Z,44.76
2022-09-10T12:39:22.121Z,45.01
2022-09-10T12:41:53.901Z,44.99
2022-09-10T12:44:25.698Z,46.06
2022-09-10T12:47:12.683Z,46.24
2022-09-10T12:49:56.540Z,46.72
2022-09-10T12:52:27.491Z,47.09
2022-09-10T12:55:02.907Z,47.65
2022-09-10T12:57:37.419Z,48.03
2022-09-10T13:00:22.817Z,48.27
2022-09-10T13:02:54.322Z,48.73
2022-09-10T13:05:26.471Z,49.32
2022-09-10T13:08:00.227Z,49.62
2022-09-10T13:10:29.855Z,49.65
2022-09-10T13:13:01.466Z,50.31
2022-09-10T13:15:32.293Z,50.16
2022-09-10T13:18:00.718Z,51.15
2022-09-10T13:20:32.270Z,50.44
2022-09-10T13:23:04.685Z,51.31
2022-09-10T13:25:37.651Z,51.26
2022-09-10T13:28:26.295Z,51.55
2022-09-10T13:31:10.954Z,51.65
2022-09-10T13:33:54.256Z,52.18
2022-09-10T13:36:43.977Z,52.48
2022-09-10T13:39:15.132Z,52.00
2022-09-10T13:41:43.436Z,52.43
2022-09-10T13:44:34.416Z,52.27
2022-09-10T13:47:10.917Z,52.88
2022-09-10T13:49:53.781Z,53.35
2022-09-10T13:52:41.363Z,53.24
2022-09-10T13:55:09.717Z,53.34
2022-09-10T13:57:42.263Z,54.15
2022-09-10T14:00:13.508Z,53.71
2022-09-10T14:02:46.372Z,53.93
2022-09-10T14:05:34.551Z,53.98
2022-09-10T14:08:08.454Z,53.52
2022-09-10T14:10:39.323Z,54.29
2022-09-10T14:13:10.041Z,54.50
2022-09-10T14:15:40.122Z,54.92
2022-09-10T14:18:10.221Z,55.11
2022-09-10T14:20:40.185Z,55.15
2022-09-10T14:23:13.533Z,55.86
2022-09-10T14:25:43.392Z,55.53
2022-09-10T14:28:17.692Z,55.84
2022-09-10T14:30:49.826Z,56.04
2022-09-10T14:33:34.414Z,56.27
2022-09-10T14:36:22.504Z,56.68
2022-09-10T14:39:20.656Z,56.95
2022-09-10T14:41:50.069Z,56.89
2022-09-10T14:44:27.263Z,57.48
2022-09-10T14:47:02.703Z,57.50
2022-09-10T14:49:34.786Z,57.50
2022-09-10T14:52:04.287Z,57.22
2022-09-10T14:54:33.666Z,57.54
2022-09-10T14:57:06.045Z,57.20
2022-09-10T14:59:34.357Z,57.72
2022-09-10T15:02:03.713Z,57.99
2022-09-10T15:04:32.542Z,58.55
2022-09-10T15:07:01.488Z,58.55
2022-09-10T15:09:30.078Z,57.75
2022-09-10T15:12:04.106Z,57.74
2022-09-10T15:14:33.498Z,58.36
2022-09-10T15:17:01.754Z,58.51
2022-09-10T15:19:30.281Z,58.68
2022-09-10T15:21:58.726Z,58.61
2022-09-10T15:24:27.006Z,58.22
2022-09-10T15:26:57.386Z,59.26
2022-09-10T15:29:26.927Z,59.61
2022-09-10T15:32:00.112Z,59.29
2022-09-10T15:34:28.847Z,59.31
2022-09-10T15:36:56.910Z,59.52
2022-09-10T15:39:25.216Z,59.42
2022-09-10T15:41:53.326Z,59.76
2022-09-10T15:44:23.366Z,59.66
2022-09-10T15:46:51.965Z,59.52
2022-09-10T15:49:20.145Z,59.83
2022-09-10T15:51:48.518Z,60.12
2022-09-10T15:54:16.868Z,59.32
2022-09-10T15:56:45.414Z,60.38
2022-09-10T15:59:15.286Z,60.91
2022-09-10T16:01:44.057Z,62.10
2022-09-10T16:04:12.378Z,61.94
2022-09-10T16:06:41.506Z,60.89
2022-09-10T16:09:11.489Z,61.50
2022-09-10T16:11:40.749Z,62.39
2022-09-10T16:14:11.886Z,60.57
2022-09-10T16:16:41.727Z,60.87
2022-09-10T16:19:11.766Z,60.77
2022-09-10T16:21:40.102Z,61.04
2022-09-10T16:24:08.854Z,60.92
2022-09-10T16:26:38.795Z,61.67
2022-09-10T16:29:12.795Z,61.77
2022-09-10T16:31:41.221Z,62.44
2022-09-10T16:34:11.605Z,62.03
2022-09-10T16:36:40.413Z,61.42
2022-09-10T16:39:12.926Z,62.29
2022-09-10T16:41:42.043Z,62.29
2022-09-10T16:44:11.787Z,62.30
2022-09-10T16:46:40.273Z,61.70
2022-09-10T16:49:10.787Z,62.02
2022-09-10T16:51:40.055Z,61.94
2022-09-10T16:54:08.538Z,62.18
2022-09-10T16:56:41.387Z,61.67
2022-09-10T16:59:16.828Z,62.15
2022-09-10T17:01:49.007Z,62.17
2022-09-10T17:04:25.990Z,61.83
2022-09-10T17:06:57.069Z,62.26
2022-09-10T17:09:25.756Z,62.02
2022-09-10T17:11:54.368Z,62.10
2022-09-10T17:14:22.733Z,62.04
2022-09-10T17:16:51.158Z,62.71
2022-09-10T17:19:21.249Z,62.54
2022-09-10T17:21:51.967Z,63.69
2022-09-10T17:24:21.616Z,63.29
2022-09-10T17:26:50.437Z,63.29
2022-09-10T17:29:20.671Z,62.82
2022-09-10T17:31:49.279Z,62.00
2022-09-10T17:34:17.677Z,62.66
2022-09-10T17:36:47.165Z,62.49
2022-09-10T17:39:15.968Z,63.24
2022-09-10T17:41:45.482Z,63.39
2022-09-10T17:44:14.268Z,62.69
2022-09-10T17:46:43.287Z,62.33
2022-09-10T17:49:13.939Z,62.98
2022-09-10T17:51:42.848Z,63.05
2022-09-10T17:54:11.420Z,61.74
2022-09-10T17:56:39.941Z,62.95
2022-09-10T17:59:08.128Z,63.30
2022-09-10T18:01:42.006Z,63.14
2022-09-10T18:04:13.343Z,62.42
2022-09-10T18:06:41.529Z,63.52
2022-09-10T18:09:10.440Z,63.38
2022-09-10T18:11:40.648Z,63.19
2022-09-10T18:14:09.688Z,63.67
2022-09-10T18:16:38.552Z,63.47
2022-09-10T18:19:14.443Z,64.41
2022-09-10T18:21:43.188Z,64.57
2022-09-10T18:24:17.927Z,64.46
2022-09-10T18:26:47.672Z,65.00
2022-09-10T18:29:18.497Z,64.83
2022-09-10T18:31:51.748Z,65.52
2022-09-10T18:34:23.908Z,64.22
2022-09-10T18:36:55.924Z,64.42
2022-09-10T18:39:24.938Z,64.36
2022-09-10T18:41:53.564Z,64.42
2022-09-10T18:44:23.503Z,64.99
2022-09-10T18:46:53.428Z,63.94
2022-09-10T18:49:23.823Z,64.44
2022-09-10T18:51:52.883Z,64.09
2022-09-10T18:54:21.845Z,64.67
2022-09-10T18:56:50.269Z,65.01
2022-09-10T18:59:24.062Z,64.24
2022-09-10T19:01:53.596Z,65.44
2022-09-10T19:04:24.521Z,65.18
2022-09-10T19:06:53.249Z,64.60
2022-09-10T19:09:25.492Z,64.61
2022-09-10T19:11:54.773Z,65.06
2022-09-10T19:14:30.525Z,65.09
2022-09-10T19:16:59.923Z,65.82
2022-09-10T19:19:29.248Z,66.13
2022-09-10T19:22:04.027Z,66.05
2022-09-10T19:24:53.510Z,65.75
2022-09-10T19:27:22.011Z,65.85
2022-09-10T19:29:50.889Z,65.73
2022-09-10T19:32:20.368Z,66.12
2022-09-10T19:34:52.272Z,65.92
2022-09-10T19:37:21.529Z,65.93
2022-09-10T19:39:49.965Z,65.85
2022-09-10T19:42:18.522Z,66.10
2022-09-10T19:44:46.684Z,65.80
2022-09-10T19:47:14.894Z,65.15
2022-09-10T19:49:43.012Z,65.79
2022-09-10T19:52:11.785Z,65.63
2022-09-10T19:54:42.456Z,65.66
2022-09-10T19:57:10.753Z,65.89
2022-09-10T19:59:39.924Z,65.89
2022-09-10T20:02:09.930Z,66.44
2022-09-10T20:04:38.336Z,65.91
2022-09-10T20:07:07.129Z,65.90
2022-09-10T20:09:39.654Z,65.75
2022-09-10T20:12:08.980Z,66.35
2022-09-10T20:14:38.046Z,66.28
2022-09-10T20:17:06.629Z,66.08
2022-09-10T20:19:34.883Z,66.42
2022-09-10T20:22:03.380Z,65.96
2022-09-10T20:24:32.165Z,67.29
2022-09-10T20:27:00.636Z,66.54
2022-09-10T20:29:30.265Z,66.51
2022-09-10T20:31:58.499Z,66.74
2022-09-10T20:34:29.778Z,66.56
2022-09-10T20:37:00.683Z,66.80
2022-09-10T20:39:28.897Z,66.59
2022-09-10T20:41:57.447Z,66.98
2022-09-10T20:44:26.642Z,66.37
2022-09-10T20:46:54.973Z,66.06
2022-09-10T20:49:23.237Z,66.12
2022-09-10T20:51:51.661Z,66.35
2022-09-10T20:54:20.067Z,66.20
2022-09-10T20:56:48.732Z,66.37
2022-09-10T20:59:17.505Z,66.07
2022-09-10T21:01:46.720Z,67.24
2022-09-10T21:04:15.770Z,67.10
2022-09-10T21:06:44.136Z,67.11
2022-09-10T21:09:13.025Z,66.59
2022-09-10T21:11:41.275Z,68.01
2022-09-10T21:14:09.449Z,67.83
2022-09-10T21:16:39.452Z,67.24
2022-09-10T21:19:10.277Z,66.69
2022-09-10T21:21:40.053Z,67.06
2022-09-10T21:24:09.522Z,67.52
2022-09-10T21:26:39.843Z,67.60
2022-09-10T21:29:11.392Z,68.00
2022-09-10T21:31:39.774Z,67.86
2022-09-10T21:34:08.082Z,67.32
2022-09-10T21:36:37.749Z,67.98
2022-09-10T21:39:12.782Z,67.69
2022-09-10T21:41:43.234Z,68.72
2022-09-10T21:44:14.732Z,67.08
2022-09-10T21:46:44.033Z,67.70
2022-09-10T21:49:13.153Z,67.64
2022-09-10T21:51:42.131Z,69.12
2022-09-10T21:54:19.224Z,69.31
2022-09-10T21:56:48.224Z,69.88
2022-09-10T21:59:16.771Z,68.77
2022-09-10T22:01:46.482Z,69.61
2022-09-10T22:04:19.948Z,69.56
2022-09-10T22:06:50.813Z,69.12
2022-09-10T22:09:20.602Z,69.51
2022-09-10T22:11:52.040Z,69.43
2022-09-10T22:14:22.243Z,69.22
2022-09-10T22:16:51.154Z,70.16
2022-09-10T22:19:21.301Z,70.22
2022-09-10T22:21:49.541Z,69.58
2022-09-10T22:24:20.636Z,70.40
2022-09-10T22:26:49.194Z,70.23
2022-09-10T22:29:18.492Z,70.52
2022-09-10T22:31:47.663Z,71.08
2022-09-10T22:34:16.834Z,72.52
2022-09-10T22:36:46.681Z,71.75
2022-09-10T22:39:16.692Z,71.81
2022-09-10T22:41:45.337Z,72.35
2022-09-10T22:44:13.777Z,72.03
2022-09-10T22:46:42.247Z,72.80
2022-09-10T22:49:10.785Z,72.80
2022-09-10T22:51:41.565Z,73.31
2022-09-10T22:54:11.450Z,72.03
2022-09-10T22:56:40.624Z,73.81
2022-09-10T22:59:12.171Z,72.90
2022-09-10T23:01:41.282Z,72.65
2022-09-10T23:04:10.686Z,73.73
2022-09-10T23:06:39.516Z,73.35
2022-09-10T23:09:18.256Z,73.98
2022-09-10T23:11:46.839Z,73.75
2022-09-10T23:14:20.125Z,73.19
2022-09-10T23:16:50.067Z,74.18
2022-09-10T23:19:25.736Z,73.25
2022-09-10T23:21:55.833Z,73.81
2022-09-10T23:24:25.706Z,73.71
2022-09-10T23:26:54.760Z,73.90
2022-09-10T23:29:24.275Z,73.19
2022-09-10T23:31:55.859Z,73.33
2022-09-10T23:34:24.958Z,73.10
2022-09-10T23:36:53.552Z,73.11
2022-09-10T23:39:23.147Z,73.42
2022-09-10T23:41:52.982Z,72.74
2022-09-10T23:44:21.708Z,73.87
2022-09-10T23:46:50.097Z,73.12
2022-09-10T23:49:18.551Z,74.01
2022-09-10T23:51:47.245Z,73.62
2022-09-10T23:54:16.047Z,73.79
2022-09-10T23:56:44.961Z,73.93
2022-09-10T23:59:13.259Z,74.12
